sensor_id;sensor_type;location;lat;lon;timestamp;P1;durP1;ratioP1;P2;durP2;ratioP2
75698;SDS011;64313;51.018;13.742;2022-12-07T00:02:22;9.32;;;4.53;;
75698;SDS011;64313;51.018;13.742;2022-12-07T00:04:48;8.15;;;4.03;;
75698;SDS011;64313;51.018;13.742;2022-12-07T00:07:14;9.13;;;4.70;;
75698;SDS011;64313;51.018;13.742;2022-12-07T00:09:39;9.52;;;4.55;;
75698;SDS011;64313;51.018;13.742;2022-12-07T00:12:06;8.77;;;4.03;;
75698;SDS011;64313;51.018;13.742;2022-12-07T00:14:32;8.88;;;3.92;;
75698;SDS011;64313;51.018;13.742;2022-12-07T00:16:57;8.02;;;4.10;;
75698;SDS011;64313;51.018;13.742;2022-12-07T00:19:22;8.80;;;4.20;;
75698;SDS011;64313;51.018;13.742;2022-12-07T00:21:48;8.27;;;4.32;;
75698;SDS011;64313;51.018;13.742;2022-12-07T00:24:13;8.43;;;4.22;;
75698;SDS011;64313;51.018;13.742;2022-12-07T00:26:39;8.77;;;4.15;;
75698;SDS011;64313;51.018;13.742;2022-12-07T00:29:07;8.80;;;3.78;;
75698;SDS011;64313;51.018;13.742;2022-12-07T00:31:44;8.32;;;4.00;;
75698;SDS011;64313;51.018;13.742;2022-12-07T00:34:14;9.38;;;4.45;;
75698;SDS011;64313;51.018;13.742;2022-12-07T00:36:41;9.40;;;4.70;;
75698;SDS011;64313;51.018;13.742;2022-12-07T00:39:06;9.13;;;4.32;;
75698;SDS011;64313;51.018;13.742;2022-12-07T00:41:32;9.75;;;4.63;;
75698;SDS011;64313;51.018;13.742;2022-12-07T00:43:57;8.30;;;4.10;;
75698;SDS011;64313;51.018;13.742;2022-12-07T00:46:23;9.15;;;4.30;;
75698;SDS011;64313;51.018;13.742;2022-12-07T00:48:49;9.98;;;4.72;;
75698;SDS011;64313;51.018;13.742;2022-12-07T00:53:41;9.30;;;4.32;;
75698;SDS011;64313;51.018;13.742;2022-12-07T00:56:07;9.23;;;4.22;;
75698;SDS011;64313;51.018;13.742;2022-12-07T00:58:34;10.00;;;4.53;;
75698;SDS011;64313;51.018;13.742;2022-12-07T01:01:00;8.95;;;4.20;;
75698;SDS011;64313;51.018;13.742;2022-12-07T01:03:27;10.00;;;4.15;;
75698;SDS011;64313;51.018;13.742;2022-12-07T01:05:53;8.48;;;4.45;;
75698;SDS011;64313;51.018;13.742;2022-12-07T01:08:20;9.80;;;4.45;;
75698;SDS011;64313;51.018;13.742;2022-12-07T01:10:46;9.57;;;4.38;;
75698;SDS011;64313;51.018;13.742;2022-12-07T01:13:11;9.35;;;4.50;;
75698;SDS011;64313;51.018;13.742;2022-12-07T01:15:40;10.68;;;4.45;;
75698;SDS011;64313;51.018;13.742;2022-12-07T01:18:07;9.20;;;4.53;;
75698;SDS011;64313;51.018;13.742;2022-12-07T01:20:33;10.73;;;4.35;;
75698;SDS011;64313;51.018;13.742;2022-12-07T01:22:58;10.20;;;4.72;;
75698;SDS011;64313;51.018;13.742;2022-12-07T01:25:23;11.30;;;5.03;;
75698;SDS011;64313;51.018;13.742;2022-12-07T01:27:49;9.32;;;4.97;;
75698;SDS011;64313;51.018;13.742;2022-12-07T01:30:14;9.95;;;4.50;;
75698;SDS011;64313;51.018;13.742;2022-12-07T01:32:39;11.23;;;5.18;;
75698;SDS011;64313;51.018;13.742;2022-12-07T01:35:05;10.27;;;4.95;;
75698;SDS011;64313;51.018;13.742;2022-12-07T01:37:34;8.95;;;4.50;;
75698;SDS011;64313;51.018;13.742;2022-12-07T01:40:01;10.73;;;5.28;;
75698;SDS011;64313;51.018;13.742;2022-12-07T01:42:26;9.57;;;4.80;;
75698;SDS011;64313;51.018;13.742;2022-12-07T01:50:09;9.20;;;4.30;;
75698;SDS011;64313;51.018;13.742;2022-12-07T01:52:35;9.35;;;4.03;;
75698;SDS011;64313;51.018;13.742;2022-12-07T01:55:04;7.93;;;3.95;;
75698;SDS011;64313;51.018;13.742;2022-12-07T01:57:33;7.90;;;3.92;;
75698;SDS011;64313;51.018;13.742;2022-12-07T02:00:01;8.90;;;4.10;;
75698;SDS011;64313;51.018;13.742;2022-12-07T02:02:39;8.13;;;3.80;;
75698;SDS011;64313;51.018;13.742;2022-12-07T02:05:09;7.95;;;3.90;;
75698;SDS011;64313;51.018;13.742;2022-12-07T02:07:36;6.85;;;3.42;;
75698;SDS011;64313;51.018;13.742;2022-12-07T02:12:37;7.88;;;3.67;;
75698;SDS011;64313;51.018;13.742;2022-12-07T02:15:03;7.55;;;3.58;;
75698;SDS011;64313;51.018;13.742;2022-12-07T02:17:32;10.43;;;4.05;;
75698;SDS011;64313;51.018;13.742;2022-12-07T02:20:13;6.65;;;3.03;;
75698;SDS011;64313;51.018;13.742;2022-12-07T02:25:55;6.30;;;3.08;;
75698;SDS011;64313;51.018;13.742;2022-12-07T02:28:37;7.53;;;3.15;;
75698;SDS011;64313;51.018;13.742;2022-12-07T02:31:22;7.13;;;3.20;;
75698;SDS011;64313;51.018;13.742;2022-12-07T02:33:54;6.90;;;2.90;;
75698;SDS011;64313;51.018;13.742;2022-12-07T02:36:29;6.90;;;3.50;;
75698;SDS011;64313;51.018;13.742;2022-12-07T02:38:58;7.30;;;3.20;;
75698;SDS011;64313;51.018;13.742;2022-12-07T02:41:30;6.07;;;2.85;;
75698;SDS011;64313;51.018;13.742;2022-12-07T02:44:12;7.82;;;3.30;;
75698;SDS011;64313;51.018;13.742;2022-12-07T02:46:43;6.30;;;2.80;;
75698;SDS011;64313;51.018;13.742;2022-12-07T02:49:14;6.10;;;3.15;;
75698;SDS011;64313;51.018;13.742;2022-12-07T02:51:41;6.97;;;3.45;;
75698;SDS011;64313;51.018;13.742;2022-12-07T02:54:10;7.95;;;3.67;;
75698;SDS011;64313;51.018;13.742;2022-12-07T03:02:24;8.05;;;3.67;;
75698;SDS011;64313;51.018;13.742;2022-12-07T03:12:20;7.82;;;3.63;;
75698;SDS011;64313;51.018;13.742;2022-12-07T03:14:56;8.55;;;4.00;;
75698;SDS011;64313;51.018;13.742;2022-12-07T03:17:30;8.10;;;3.97;;
75698;SDS011;64313;51.018;13.742;2022-12-07T03:20:00;7.85;;;4.00;;
75698;SDS011;64313;51.018;13.742;2022-12-07T03:22:30;8.48;;;4.40;;
75698;SDS011;64313;51.018;13.742;2022-12-07T03:24:59;8.85;;;4.45;;
75698;SDS011;64313;51.018;13.742;2022-12-07T03:27:31;8.20;;;4.38;;
75698;SDS011;64313;51.018;13.742;2022-12-07T03:30:02;8.02;;;4.03;;
75698;SDS011;64313;51.018;13.742;2022-12-07T03:35:03;9.88;;;5.07;;
75698;SDS011;64313;51.018;13.742;2022-12-07T03:37:36;9.38;;;4.20;;
75698;SDS011;64313;51.018;13.742;2022-12-07T03:40:14;11.02;;;4.90;;
75698;SDS011;64313;51.018;13.742;2022-12-07T03:42:44;9.40;;;4.40;;
75698;SDS011;64313;51.018;13.742;2022-12-07T03:45:11;8.57;;;4.75;;
75698;SDS011;64313;51.018;13.742;2022-12-07T03:47:41;8.68;;;4.57;;
75698;SDS011;64313;51.018;13.742;2022-12-07T03:50:21;9.95;;;4.97;;
75698;SDS011;64313;51.018;13.742;2022-12-07T03:53:04;8.85;;;4.55;;
75698;SDS011;64313;51.018;13.742;2022-12-07T03:58:06;10.45;;;5.10;;
75698;SDS011;64313;51.018;13.742;2022-12-07T04:00:36;10.07;;;4.60;;
75698;SDS011;64313;51.018;13.742;2022-12-07T04:03:01;9.65;;;4.72;;
75698;SDS011;64313;51.018;13.742;2022-12-07T04:05:27;10.13;;;5.13;;
75698;SDS011;64313;51.018;13.742;2022-12-07T04:07:52;9.30;;;4.72;;
75698;SDS011;64313;51.018;13.742;2022-12-07T04:10:18;9.95;;;4.65;;
75698;SDS011;64313;51.018;13.742;2022-12-07T04:12:44;10.25;;;4.90;;
75698;SDS011;64313;51.018;13.742;2022-12-07T04:15:09;8.65;;;4.20;;
75698;SDS011;64313;51.018;13.742;2022-12-07T04:17:35;9.95;;;4.93;;
75698;SDS011;64313;51.018;13.742;2022-12-07T04:20:00;8.93;;;4.55;;
75698;SDS011;64313;51.018;13.742;2022-12-07T04:22:26;10.18;;;3.95;;
75698;SDS011;64313;51.018;13.742;2022-12-07T04:24:51;9.77;;;4.60;;
75698;SDS011;64313;51.018;13.742;2022-12-07T04:27:17;9.18;;;4.28;;
75698;SDS011;64313;51.018;13.742;2022-12-07T04:29:42;8.90;;;4.30;;
75698;SDS011;64313;51.018;13.742;2022-12-07T04:32:07;10.07;;;4.35;;
75698;SDS011;64313;51.018;13.742;2022-12-07T04:34:33;8.90;;;4.45;;
75698;SDS011;64313;51.018;13.742;2022-12-07T04:36:58;9.45;;;4.43;;
75698;SDS011;64313;51.018;13.742;2022-12-07T04:39:28;9.70;;;4.85;;
75698;SDS011;64313;51.018;13.742;2022-12-07T04:41:56;9.48;;;4.13;;
75698;SDS011;64313;51.018;13.742;2022-12-07T04:46:49;8.98;;;4.57;;
75698;SDS011;64313;51.018;13.742;2022-12-07T04:49:15;8.98;;;4.05;;
75698;SDS011;64313;51.018;13.742;2022-12-07T04:51:41;9.90;;;4.25;;
75698;SDS011;64313;51.018;13.742;2022-12-07T04:54:06;9.25;;;4.38;;
75698;SDS011;64313;51.018;13.742;2022-12-07T04:56:32;9.20;;;4.30;;
75698;SDS011;64313;51.018;13.742;2022-12-07T04:58:59;9.93;;;4.50;;
75698;SDS011;64313;51.018;13.742;2022-12-07T05:01:26;10.07;;;4.18;;
75698;SDS011;64313;51.018;13.742;2022-12-07T05:03:51;8.00;;;3.67;;
75698;SDS011;64313;51.018;13.742;2022-12-07T05:06:16;8.68;;;4.18;;
75698;SDS011;64313;51.018;13.742;2022-12-07T05:08:42;9.38;;;4.25;;
75698;SDS011;64313;51.018;13.742;2022-12-07T05:11:08;8.55;;;3.75;;
75698;SDS011;64313;51.018;13.742;2022-12-07T05:13:35;7.97;;;3.63;;
75698;SDS011;64313;51.018;13.742;2022-12-07T05:18:26;7.47;;;3.70;;
75698;SDS011;64313;51.018;13.742;2022-12-07T05:20:51;9.23;;;3.65;;
75698;SDS011;64313;51.018;13.742;2022-12-07T05:23:17;8.38;;;3.60;;
75698;SDS011;64313;51.018;13.742;2022-12-07T05:25:43;9.07;;;4.05;;
75698;SDS011;64313;51.018;13.742;2022-12-07T05:28:08;7.60;;;3.33;;
75698;SDS011;64313;51.018;13.742;2022-12-07T05:30:34;8.52;;;3.90;;
75698;SDS011;64313;51.018;13.742;2022-12-07T05:33:00;7.05;;;3.35;;
75698;SDS011;64313;51.018;13.742;2022-12-07T05:35:25;7.45;;;3.30;;
75698;SDS011;64313;51.018;13.742;2022-12-07T05:37:51;7.90;;;3.20;;
75698;SDS011;64313;51.018;13.742;2022-12-07T05:40:16;6.85;;;3.08;;
75698;SDS011;64313;51.018;13.742;2022-12-07T05:42:43;7.97;;;3.40;;
75698;SDS011;64313;51.018;13.742;2022-12-07T05:45:09;6.25;;;2.63;;
75698;SDS011;64313;51.018;13.742;2022-12-07T05:47:35;7.28;;;2.88;;
75698;SDS011;64313;51.018;13.742;2022-12-07T05:52:27;7.00;;;2.83;;
75698;SDS011;64313;51.018;13.742;2022-12-07T05:54:52;7.43;;;3.10;;
75698;SDS011;64313;51.018;13.742;2022-12-07T05:57:18;6.35;;;2.88;;
75698;SDS011;64313;51.018;13.742;2022-12-07T05:59:44;7.05;;;2.72;;
75698;SDS011;64313;51.018;13.742;2022-12-07T06:02:11;7.72;;;2.70;;
75698;SDS011;64313;51.018;13.742;2022-12-07T06:04:41;5.75;;;2.53;;
75698;SDS011;64313;51.018;13.742;2022-12-07T06:07:11;6.05;;;2.60;;
75698;SDS011;64313;51.018;13.742;2022-12-07T06:09:39;6.45;;;2.60;;
75698;SDS011;64313;51.018;13.742;2022-12-07T06:12:05;5.97;;;2.65;;
75698;SDS011;64313;51.018;13.742;2022-12-07T06:17:14;7.88;;;2.83;;
75698;SDS011;64313;51.018;13.742;2022-12-07T06:19:40;5.60;;;2.33;;
75698;SDS011;64313;51.018;13.742;2022-12-07T06:22:06;6.65;;;3.10;;
75698;SDS011;64313;51.018;13.742;2022-12-07T06:24:32;7.43;;;3.17;;
75698;SDS011;64313;51.018;13.742;2022-12-07T06:26:58;7.88;;;3.30;;
75698;SDS011;64313;51.018;13.742;2022-12-07T06:29:24;6.97;;;2.85;;
75698;SDS011;64313;51.018;13.742;2022-12-07T06:31:50;6.55;;;2.97;;
75698;SDS011;64313;51.018;13.742;2022-12-07T06:34:16;6.57;;;2.80;;
75698;SDS011;64313;51.018;13.742;2022-12-07T06:36:43;7.32;;;3.10;;
75698;SDS011;64313;51.018;13.742;2022-12-07T06:39:09;5.90;;;2.78;;
75698;SDS011;64313;51.018;13.742;2022-12-07T06:41:36;7.95;;;3.03;;
75698;SDS011;64313;51.018;13.742;2022-12-07T06:44:02;6.75;;;2.70;;
75698;SDS011;64313;51.018;13.742;2022-12-07T06:48:53;6.03;;;2.27;;
75698;SDS011;64313;51.018;13.742;2022-12-07T06:51:18;6.00;;;2.67;;
75698;SDS011;64313;51.018;13.742;2022-12-07T06:53:44;7.05;;;3.17;;
75698;SDS011;64313;51.018;13.742;2022-12-07T06:56:09;6.88;;;2.72;;
75698;SDS011;64313;51.018;13.742;2022-12-07T06:58:34;5.90;;;2.80;;
75698;SDS011;64313;51.018;13.742;2022-12-07T07:01:00;5.95;;;2.20;;
75698;SDS011;64313;51.018;13.742;2022-12-07T07:03:25;5.55;;;2.60;;
75698;SDS011;64313;51.018;13.742;2022-12-07T07:05:51;6.22;;;2.40;;
75698;SDS011;64313;51.018;13.742;2022-12-07T07:08:16;6.05;;;2.60;;
75698;SDS011;64313;51.018;13.742;2022-12-07T07:10:41;6.30;;;2.85;;
75698;SDS011;64313;51.018;13.742;2022-12-07T07:13:07;4.93;;;2.33;;
75698;SDS011;64313;51.018;13.742;2022-12-07T07:15:33;5.47;;;2.53;;
75698;SDS011;64313;51.018;13.742;2022-12-07T07:20:25;5.65;;;2.45;;
75698;SDS011;64313;51.018;13.742;2022-12-07T07:22:50;5.72;;;2.55;;
75698;SDS011;64313;51.018;13.742;2022-12-07T07:25:18;5.78;;;2.33;;
75698;SDS011;64313;51.018;13.742;2022-12-07T07:27:44;5.93;;;2.60;;
75698;SDS011;64313;51.018;13.742;2022-12-07T07:30:10;4.72;;;2.10;;
75698;SDS011;64313;51.018;13.742;2022-12-07T07:32:36;6.15;;;2.65;;
75698;SDS011;64313;51.018;13.742;2022-12-07T07:35:01;6.70;;;2.47;;
75698;SDS011;64313;51.018;13.742;2022-12-07T07:37:27;5.10;;;2.25;;
75698;SDS011;64313;51.018;13.742;2022-12-07T07:39:52;5.78;;;2.50;;
75698;SDS011;64313;51.018;13.742;2022-12-07T07:42:18;5.15;;;2.40;;
75698;SDS011;64313;51.018;13.742;2022-12-07T07:44:44;5.28;;;2.25;;
75698;SDS011;64313;51.018;13.742;2022-12-07T07:47:10;5.00;;;2.35;;
75698;SDS011;64313;51.018;13.742;2022-12-07T07:49:35;6.03;;;2.30;;
75698;SDS011;64313;51.018;13.742;2022-12-07T07:52:00;5.13;;;2.38;;
75698;SDS011;64313;51.018;13.742;2022-12-07T07:54:26;5.20;;;2.17;;
75698;SDS011;64313;51.018;13.742;2022-12-07T07:56:52;5.65;;;2.65;;
75698;SDS011;64313;51.018;13.742;2022-12-07T07:59:18;5.93;;;2.58;;
75698;SDS011;64313;51.018;13.742;2022-12-07T08:01:43;6.35;;;2.92;;
75698;SDS011;64313;51.018;13.742;2022-12-07T08:04:08;6.00;;;3.20;;
75698;SDS011;64313;51.018;13.742;2022-12-07T08:06:34;6.50;;;2.97;;
75698;SDS011;64313;51.018;13.742;2022-12-07T08:08:59;5.70;;;2.75;;
75698;SDS011;64313;51.018;13.742;2022-12-07T08:11:25;6.78;;;3.25;;
75698;SDS011;64313;51.018;13.742;2022-12-07T08:13:50;7.10;;;3.40;;
75698;SDS011;64313;51.018;13.742;2022-12-07T08:16:15;7.65;;;3.60;;
75698;SDS011;64313;51.018;13.742;2022-12-07T08:18:42;7.22;;;3.55;;
75698;SDS011;64313;51.018;13.742;2022-12-07T08:21:09;7.60;;;3.90;;
75698;SDS011;64313;51.018;13.742;2022-12-07T08:23:37;8.00;;;3.75;;
75698;SDS011;64313;51.018;13.742;2022-12-07T08:26:03;8.20;;;4.32;;
75698;SDS011;64313;51.018;13.742;2022-12-07T08:28:31;9.73;;;4.40;;
75698;SDS011;64313;51.018;13.742;2022-12-07T08:31:00;8.30;;;3.83;;
75698;SDS011;64313;51.018;13.742;2022-12-07T08:33:27;7.80;;;3.90;;
75698;SDS011;64313;51.018;13.742;2022-12-07T08:35:53;7.57;;;3.97;;
75698;SDS011;64313;51.018;13.742;2022-12-07T08:38:18;9.07;;;4.00;;
75698;SDS011;64313;51.018;13.742;2022-12-07T08:40:44;9.13;;;4.05;;
75698;SDS011;64313;51.018;13.742;2022-12-07T08:43:09;8.13;;;4.32;;
75698;SDS011;64313;51.018;13.742;2022-12-07T08:45:34;8.25;;;4.10;;
75698;SDS011;64313;51.018;13.742;2022-12-07T08:48:07;8.45;;;4.25;;
75698;SDS011;64313;51.018;13.742;2022-12-07T08:50:35;7.85;;;3.97;;
75698;SDS011;64313;51.018;13.742;2022-12-07T08:53:02;8.35;;;4.43;;
75698;SDS011;64313;51.018;13.742;2022-12-07T08:55:30;9.00;;;4.30;;
75698;SDS011;64313;51.018;13.742;2022-12-07T08:57:58;9.30;;;4.22;;
75698;SDS011;64313;51.018;13.742;2022-12-07T09:02:50;8.48;;;4.10;;
75698;SDS011;64313;51.018;13.742;2022-12-07T09:05:16;8.25;;;3.53;;
75698;SDS011;64313;51.018;13.742;2022-12-07T09:07:42;10.55;;;4.18;;
75698;SDS011;64313;51.018;13.742;2022-12-07T09:10:11;9.40;;;4.38;;
75698;SDS011;64313;51.018;13.742;2022-12-07T09:12:36;9.60;;;4.35;;
75698;SDS011;64313;51.018;13.742;2022-12-07T09:15:02;9.40;;;4.10;;
75698;SDS011;64313;51.018;13.742;2022-12-07T09:17:31;9.90;;;4.30;;
75698;SDS011;64313;51.018;13.742;2022-12-07T09:19:57;8.52;;;4.20;;
75698;SDS011;64313;51.018;13.742;2022-12-07T09:22:22;8.48;;;3.92;;
75698;SDS011;64313;51.018;13.742;2022-12-07T09:24:48;8.57;;;3.95;;
75698;SDS011;64313;51.018;13.742;2022-12-07T09:27:13;6.60;;;3.40;;
75698;SDS011;64313;51.018;13.742;2022-12-07T09:29:39;8.13;;;3.80;;
75698;SDS011;64313;51.018;13.742;2022-12-07T09:32:04;7.43;;;3.63;;
75698;SDS011;64313;51.018;13.742;2022-12-07T09:34:30;7.55;;;3.42;;
75698;SDS011;64313;51.018;13.742;2022-12-07T09:36:56;6.28;;;3.20;;
75698;SDS011;64313;51.018;13.742;2022-12-07T09:39:22;8.43;;;3.25;;
75698;SDS011;64313;51.018;13.742;2022-12-07T09:41:47;9.27;;;3.33;;
75698;SDS011;64313;51.018;13.742;2022-12-07T09:44:14;7.35;;;3.50;;
75698;SDS011;64313;51.018;13.742;2022-12-07T09:46:46;7.47;;;3.10;;
75698;SDS011;64313;51.018;13.742;2022-12-07T09:49:14;8.20;;;3.25;;
75698;SDS011;64313;51.018;13.742;2022-12-07T09:51:43;8.20;;;3.30;;
75698;SDS011;64313;51.018;13.742;2022-12-07T09:54:09;7.15;;;3.10;;
75698;SDS011;64313;51.018;13.742;2022-12-07T09:56:38;7.80;;;3.03;;
75698;SDS011;64313;51.018;13.742;2022-12-07T09:59:04;6.60;;;2.90;;
75698;SDS011;64313;51.018;13.742;2022-12-07T10:01:30;6.35;;;2.90;;
75698;SDS011;64313;51.018;13.742;2022-12-07T10:06:38;6.65;;;2.97;;
75698;SDS011;64313;51.018;13.742;2022-12-07T10:09:13;7.85;;;3.03;;
75698;SDS011;64313;51.018;13.742;2022-12-07T10:14:30;7.50;;;2.78;;
75698;SDS011;64313;51.018;13.742;2022-12-07T10:16:57;6.82;;;3.05;;
75698;SDS011;64313;51.018;13.742;2022-12-07T10:19:27;9.85;;;3.20;;
75698;SDS011;64313;51.018;13.742;2022-12-07T10:24:42;9.38;;;3.08;;
75698;SDS011;64313;51.018;13.742;2022-12-07T10:27:29;6.25;;;2.97;;
75698;SDS011;64313;51.018;13.742;2022-12-07T10:29:56;7.68;;;2.78;;
75698;SDS011;64313;51.018;13.742;2022-12-07T10:32:28;8.10;;;3.35;;
75698;SDS011;64313;51.018;13.742;2022-12-07T10:37:55;8.00;;;3.33;;
75698;SDS011;64313;51.018;13.742;2022-12-07T10:40:33;7.10;;;2.95;;
75698;SDS011;64313;51.018;13.742;2022-12-07T10:51:05;10.83;;;3.20;;
75698;SDS011;64313;51.018;13.742;2022-12-07T11:01:45;5.93;;;2.80;;
75698;SDS011;64313;51.018;13.742;2022-12-07T11:12:40;6.63;;;2.83;;
75698;SDS011;64313;51.018;13.742;2022-12-07T11:15:33;8.05;;;2.78;;
75698;SDS011;64313;51.018;13.742;2022-12-07T11:18:09;5.72;;;2.78;;
75698;SDS011;64313;51.018;13.742;2022-12-07T11:23:52;6.78;;;3.03;;
75698;SDS011;64313;51.018;13.742;2022-12-07T11:34:57;7.57;;;3.03;;
75698;SDS011;64313;51.018;13.742;2022-12-07T11:37:32;7.53;;;3.13;;
75698;SDS011;64313;51.018;13.742;2022-12-07T11:40:04;7.35;;;3.15;;
75698;SDS011;64313;51.018;13.742;2022-12-07T11:42:58;6.07;;;2.92;;
75698;SDS011;64313;51.018;13.742;2022-12-07T11:45:30;7.47;;;3.00;;
75698;SDS011;64313;51.018;13.742;2022-12-07T11:50:56;7.53;;;3.05;;
75698;SDS011;64313;51.018;13.742;2022-12-07T11:53:25;7.82;;;3.05;;
75698;SDS011;64313;51.018;13.742;2022-12-07T11:56:13;7.28;;;3.20;;
75698;SDS011;64313;51.018;13.742;2022-12-07T12:04:03;6.53;;;2.95;;
75698;SDS011;64313;51.018;13.742;2022-12-07T12:06:40;9.02;;;3.22;;
75698;SDS011;64313;51.018;13.742;2022-12-07T12:09:12;9.15;;;3.40;;
75698;SDS011;64313;51.018;13.742;2022-12-07T12:14:35;6.82;;;3.20;;
75698;SDS011;64313;51.018;13.742;2022-12-07T12:20:15;7.20;;;3.78;;
75698;SDS011;64313;51.018;13.742;2022-12-07T12:25:39;7.47;;;2.78;;
75698;SDS011;64313;51.018;13.742;2022-12-07T12:28:16;6.82;;;3.15;;
75698;SDS011;64313;51.018;13.742;2022-12-07T12:33:33;8.32;;;2.97;;
75698;SDS011;64313;51.018;13.742;2022-12-07T12:38:50;5.47;;;2.20;;
75698;SDS011;64313;51.018;13.742;2022-12-07T12:46:52;4.93;;;1.80;;
75698;SDS011;64313;51.018;13.742;2022-12-07T12:51:48;4.00;;;1.43;;
75698;SDS011;64313;51.018;13.742;2022-12-07T12:59:30;4.00;;;1.45;;
75698;SDS011;64313;51.018;13.742;2022-12-07T13:02:09;5.50;;;1.73;;
75698;SDS011;64313;51.018;13.742;2022-12-07T13:08:17;4.30;;;1.50;;
75698;SDS011;64313;51.018;13.742;2022-12-07T13:15:41;4.18;;;1.63;;
75698;SDS011;64313;51.018;13.742;2022-12-07T13:21:02;6.00;;;2.03;;
75698;SDS011;64313;51.018;13.742;2022-12-07T13:28:39;6.22;;;1.85;;
75698;SDS011;64313;51.018;13.742;2022-12-07T13:34:27;7.43;;;3.05;;
75698;SDS011;64313;51.018;13.742;2022-12-07T13:39:52;6.88;;;2.70;;
75698;SDS011;64313;51.018;13.742;2022-12-07T13:42:21;6.65;;;2.35;;
75698;SDS011;64313;51.018;13.742;2022-12-07T13:44:52;6.47;;;2.40;;
75698;SDS011;64313;51.018;13.742;2022-12-07T13:50:00;6.07;;;2.03;;
75698;SDS011;64313;51.018;13.742;2022-12-07T13:52:27;5.47;;;1.80;;
75698;SDS011;64313;51.018;13.742;2022-12-07T13:55:11;4.75;;;1.70;;
75698;SDS011;64313;51.018;13.742;2022-12-07T13:57:39;5.13;;;1.90;;
75698;SDS011;64313;51.018;13.742;2022-12-07T14:00:13;5.20;;;1.70;;
75698;SDS011;64313;51.018;13.742;2022-12-07T14:02:58;5.68;;;2.10;;
75698;SDS011;64313;51.018;13.742;2022-12-07T14:05:29;4.05;;;1.50;;
75698;SDS011;64313;51.018;13.742;2022-12-07T14:15:54;4.75;;;1.90;;
75698;SDS011;64313;51.018;13.742;2022-12-07T14:21:18;5.72;;;2.10;;
75698;SDS011;64313;51.018;13.742;2022-12-07T14:24:02;6.45;;;2.30;;
75698;SDS011;64313;51.018;13.742;2022-12-07T14:26:34;6.28;;;2.28;;
75698;SDS011;64313;51.018;13.742;2022-12-07T14:32:23;7.85;;;2.38;;
75698;SDS011;64313;51.018;13.742;2022-12-07T14:35:00;7.63;;;2.65;;
75698;SDS011;64313;51.018;13.742;2022-12-07T14:37:28;7.60;;;2.65;;
75698;SDS011;64313;51.018;13.742;2022-12-07T14:39:54;6.85;;;2.78;;
75698;SDS011;64313;51.018;13.742;2022-12-07T14:42:20;7.70;;;3.10;;
75698;SDS011;64313;51.018;13.742;2022-12-07T14:44:49;6.75;;;2.78;;
75698;SDS011;64313;51.018;13.742;2022-12-07T14:47:14;7.68;;;2.80;;
75698;SDS011;64313;51.018;13.742;2022-12-07T14:49:40;6.05;;;2.53;;
75698;SDS011;64313;51.018;13.742;2022-12-07T14:52:05;6.70;;;2.55;;
75698;SDS011;64313;51.018;13.742;2022-12-07T14:54:38;7.00;;;2.35;;
75698;SDS011;64313;51.018;13.742;2022-12-07T14:57:03;8.52;;;2.10;;
75698;SDS011;64313;51.018;13.742;2022-12-07T14:59:29;5.38;;;2.20;;
75698;SDS011;64313;51.018;13.742;2022-12-07T15:01:54;9.68;;;2.67;;
75698;SDS011;64313;51.018;13.742;2022-12-07T15:04:19;4.80;;;1.83;;
75698;SDS011;64313;51.018;13.742;2022-12-07T15:06:55;5.90;;;1.92;;
75698;SDS011;64313;51.018;13.742;2022-12-07T15:09:21;5.97;;;1.90;;
75698;SDS011;64313;51.018;13.742;2022-12-07T15:11:46;6.55;;;2.10;;
75698;SDS011;64313;51.018;13.742;2022-12-07T15:14:12;3.78;;;1.60;;
75698;SDS011;64313;51.018;13.742;2022-12-07T15:16:38;4.60;;;1.70;;
75698;SDS011;64313;51.018;13.742;2022-12-07T15:19:10;5.28;;;1.88;;
75698;SDS011;64313;51.018;13.742;2022-12-07T15:21:39;6.70;;;2.20;;
75698;SDS011;64313;51.018;13.742;2022-12-07T15:24:05;4.57;;;1.90;;
75698;SDS011;64313;51.018;13.742;2022-12-07T15:26:31;5.38;;;1.85;;
75698;SDS011;64313;51.018;13.742;2022-12-07T15:28:56;4.78;;;2.13;;
75698;SDS011;64313;51.018;13.742;2022-12-07T15:31:22;6.32;;;2.20;;
75698;SDS011;64313;51.018;13.742;2022-12-07T15:33:47;6.03;;;1.92;;
75698;SDS011;64313;51.018;13.742;2022-12-07T15:36:20;5.95;;;1.98;;
75698;SDS011;64313;51.018;13.742;2022-12-07T15:38:47;6.10;;;2.00;;
75698;SDS011;64313;51.018;13.742;2022-12-07T15:41:13;5.68;;;1.73;;
75698;SDS011;64313;51.018;13.742;2022-12-07T15:43:38;3.63;;;1.30;;
75698;SDS011;64313;51.018;13.742;2022-12-07T15:46:22;5.22;;;1.70;;
75698;SDS011;64313;51.018;13.742;2022-12-07T15:48:47;5.72;;;2.10;;
75698;SDS011;64313;51.018;13.742;2022-12-07T15:51:13;5.43;;;2.10;;
75698;SDS011;64313;51.018;13.742;2022-12-07T15:53:38;4.45;;;1.70;;
75698;SDS011;64313;51.018;13.742;2022-12-07T15:56:07;5.28;;;1.60;;
75698;SDS011;64313;51.018;13.742;2022-12-07T15:58:33;4.82;;;1.52;;
75698;SDS011;64313;51.018;13.742;2022-12-07T16:00:59;5.63;;;1.50;;
75698;SDS011;64313;51.018;13.742;2022-12-07T16:03:24;4.82;;;1.90;;
75698;SDS011;64313;51.018;13.742;2022-12-07T16:05:52;6.82;;;1.83;;
75698;SDS011;64313;51.018;13.742;2022-12-07T16:08:18;5.18;;;1.58;;
75698;SDS011;64313;51.018;13.742;2022-12-07T16:10:44;5.32;;;1.70;;
75698;SDS011;64313;51.018;13.742;2022-12-07T16:13:10;5.95;;;1.60;;
75698;SDS011;64313;51.018;13.742;2022-12-07T16:15:39;6.00;;;1.92;;
75698;SDS011;64313;51.018;13.742;2022-12-07T16:18:06;4.75;;;1.73;;
75698;SDS011;64313;51.018;13.742;2022-12-07T16:20:31;5.30;;;1.92;;
75698;SDS011;64313;51.018;13.742;2022-12-07T16:22:56;5.43;;;1.90;;
75698;SDS011;64313;51.018;13.742;2022-12-07T16:25:22;6.68;;;2.08;;
75698;SDS011;64313;51.018;13.742;2022-12-07T16:27:47;4.70;;;1.58;;
75698;SDS011;64313;51.018;13.742;2022-12-07T16:30:14;4.88;;;1.60;;
75698;SDS011;64313;51.018;13.742;2022-12-07T16:32:41;5.68;;;1.80;;
75698;SDS011;64313;51.018;13.742;2022-12-07T16:35:06;4.45;;;1.58;;
75698;SDS011;64313;51.018;13.742;2022-12-07T16:37:32;4.82;;;1.77;;
75698;SDS011;64313;51.018;13.742;2022-12-07T16:39:58;4.68;;;1.60;;
75698;SDS011;64313;51.018;13.742;2022-12-07T16:42:23;5.25;;;1.75;;
75698;SDS011;64313;51.018;13.742;2022-12-07T16:44:48;4.20;;;1.45;;
75698;SDS011;64313;51.018;13.742;2022-12-07T16:47:13;4.32;;;1.60;;
75698;SDS011;64313;51.018;13.742;2022-12-07T16:49:39;5.95;;;1.80;;
75698;SDS011;64313;51.018;13.742;2022-12-07T16:52:04;4.55;;;1.55;;
75698;SDS011;64313;51.018;13.742;2022-12-07T16:54:29;5.80;;;1.90;;
75698;SDS011;64313;51.018;13.742;2022-12-07T16:56:58;7.20;;;1.85;;
75698;SDS011;64313;51.018;13.742;2022-12-07T16:59:23;5.80;;;1.95;;
75698;SDS011;64313;51.018;13.742;2022-12-07T17:01:48;4.47;;;1.50;;
75698;SDS011;64313;51.018;13.742;2022-12-07T17:04:14;5.72;;;1.95;;
75698;SDS011;64313;51.018;13.742;2022-12-07T17:06:39;5.05;;;1.75;;
75698;SDS011;64313;51.018;13.742;2022-12-07T17:09:04;5.28;;;2.00;;
75698;SDS011;64313;51.018;13.742;2022-12-07T17:11:34;6.15;;;2.10;;
75698;SDS011;64313;51.018;13.742;2022-12-07T17:13:59;8.88;;;2.58;;
75698;SDS011;64313;51.018;13.742;2022-12-07T17:16:43;5.95;;;2.42;;
75698;SDS011;64313;51.018;13.742;2022-12-07T17:19:10;5.88;;;2.22;;
75698;SDS011;64313;51.018;13.742;2022-12-07T17:21:37;8.45;;;2.40;;
75698;SDS011;64313;51.018;13.742;2022-12-07T17:24:04;7.13;;;2.10;;
75698;SDS011;64313;51.018;13.742;2022-12-07T17:26:31;6.47;;;2.22;;
75698;SDS011;64313;51.018;13.742;2022-12-07T17:28:58;8.98;;;2.17;;
75698;SDS011;64313;51.018;13.742;2022-12-07T17:33:49;5.93;;;1.77;;